Time;durP1;ratioP1;P1;durP2;ratioP2;P2;SDS_P1;SDS_P2;PMS_P1;PMS_P2;Temp;Humidity;BMP_temperature;BMP_pressure;BME280_temperature;BME280_humidity;BME280_pressure;Samples;Min_cycle;Max_cycle;Signal;HPM_P1;HPM_P2
2022/01/15 00:00:05;;;;;;;97.93;43.10;;;;;;;4.60;100.00;103196.81;5233699;28;20433;-75
2022/01/15 00:02:36;;;;;;;84.15;43.10;;;;;;;4.63;100.00;103200.22;5232762;28;20031;-75
2022/01/15 00:05:08;;;;;;;82.80;42.25;;;;;;;4.67;100.00;103200.16;5233394;28;20503;-75
2022/01/15 00:07:41;;;;;;;134.15;45.55;;;;;;;4.66;100.00;103198.41;5233732;28;20478;-76
2022/01/15 00:10:13;;;;;;;90.70;42.70;;;;;;;4.68;100.00;103191.47;5233582;28;20807;-76
2022/01/15 00:12:44;;;;;;;133.10;45.33;;;;;;;4.64;100.00;103193.28;5232650;28;20505;-76
2022/01/15 00:15:22;;;;;;;96.97;45.10;;;;;;;4.67;100.00;103200.16;5231807;28;20104;-76
2022/01/15 00:17:58;;;;;;;95.93;42.90;;;;;;;4.63;100.00;103196.75;5234436;28;20025;-75
2022/01/15 00:20:29;;;;;;;108.53;42.42;;;;;;;4.56;100.00;103187.41;5233165;28;20056;-75
2022/01/15 00:23:02;;;;;;;132.25;44.50;;;;;;;4.57;100.00;103189.09;5233341;28;20033;-75
2022/01/15 00:25:34;;;;;;;103.93;43.53;;;;;;;4.50;100.00;103182.34;5232663;28;20034;-75
2022/01/15 00:28:05;;;;;;;97.70;42.53;;;;;;;4.56;100.00;103188.25;5233798;28;20390;-75
2022/01/15 00:30:36;;;;;;;113.55;41.85;;;;;;;4.50;100.00;103184.94;5232764;28;20255;-75
2022/01/15 00:33:07;;;;;;;119.95;42.53;;;;;;;4.50;100.00;103182.34;5233990;28;20025;-76
2022/01/15 00:35:39;;;;;;;88.65;39.38;;;;;;;4.50;100.00;103175.38;5232894;28;20183;-76
2022/01/15 00:38:10;;;;;;;93.70;41.72;;;;;;;4.49;100.00;103181.47;5232377;28;20084;-75
2022/01/15 00:40:42;;;;;;;88.00;39.75;;;;;;;4.48;100.00;103179.78;5233294;28;20056;-75
2022/01/15 00:43:13;;;;;;;107.00;40.13;;;;;;;4.39;100.00;103165.28;5232433;28;20539;-75
2022/01/15 00:45:45;;;;;;;95.43;39.00;;;;;;;4.38;100.00;103165.28;5232350;28;20410;-76
2022/01/15 00:48:16;;;;;;;82.75;38.45;;;;;;;4.44;100.00;103166.91;5230912;28;20028;-76
2022/01/15 00:50:47;;;;;;;118.85;38.75;;;;;;;4.33;100.00;103156.75;5232211;28;20120;-75
2022/01/15 00:53:19;;;;;;;141.80;39.97;;;;;;;4.36;100.00;103169.66;5233488;28;20036;-75
2022/01/15 00:55:50;;;;;;;91.72;40.65;;;;;;;4.35;100.00;103157.56;5232201;28;20032;-75
2022/01/15 00:58:21;;;;;;;94.50;39.33;;;;;;;4.30;100.00;103152.47;5231983;28;20470;-75
2022/01/15 01:00:52;;;;;;;89.20;36.17;;;;;;;4.37;100.00;103156.66;5232156;28;20126;-76
2022/01/15 01:03:24;;;;;;;101.50;37.58;;;;;;;4.35;100.00;103150.63;5232931;28;20056;-76
2022/01/15 01:05:55;;;;;;;106.82;38.22;;;;;;;4.34;100.00;103153.25;5231534;28;20068;-76
2022/01/15 01:08:26;;;;;;;110.50;40.08;;;;;;;4.27;100.00;103144.75;5234408;28;20025;-75
2022/01/15 01:10:59;;;;;;;102.18;37.65;;;;;;;4.25;100.00;103146.53;5232711;28;20078;-75
2022/01/15 01:24:28;;;;;;;83.60;33.97;;;;;;;4.21;100.00;103129.34;5231887;28;20038;-76
2022/01/15 01:27:09;;;;;;;79.63;33.33;;;;;;;4.24;100.00;103129.25;5231713;28;20037;-75
2022/01/15 01:30:05;;;;;;;88.55;33.33;;;;;;;4.18;100.00;103128.53;5233007;28;20120;-76
2022/01/15 01:32:46;;;;;;;92.85;34.30;;;;;;;4.15;100.00;103124.25;5230670;28;20038;-75
2022/01/15 01:35:32;;;;;;;79.18;33.10;;;;;;;4.13;100.00;103133.84;5232650;28;20060;-76
2022/01/15 01:38:28;;;;;;;87.57;31.73;;;;;;;4.07;100.00;103127.03;5233459;28;20039;-75
2022/01/15 01:41:00;;;;;;;102.05;35.25;;;;;;;4.05;100.00;103123.63;5232313;28;21416;-75
2022/01/15 01:46:20;;;;;;;78.13;33.05;;;;;;;4.04;100.00;103121.03;5232170;28;20048;-75
2022/01/15 01:48:53;;;;;;;87.05;33.58;;;;;;;4.11;100.00;103120.03;5233464;28;20033;-75
2022/01/15 01:51:25;;;;;;;81.50;33.15;;;;;;;4.09;100.00;103114.88;5230738;28;20618;-75
2022/01/15 01:54:00;;;;;;;112.32;33.30;;;;;;;4.00;100.00;103102.09;5233463;28;20437;-75
2022/01/15 01:56:32;;;;;;;82.50;31.95;;;;;;;4.01;100.00;103108.97;5233378;28;20025;-75
2022/01/15 01:59:06;;;;;;;87.78;35.53;;;;;;;4.02;100.00;103109.84;5235956;28;20035;-74
2022/01/15 02:01:37;;;;;;;108.13;35.85;;;;;;;3.99;100.00;103113.34;5234213;28;20682;-75
2022/01/15 02:04:09;;;;;;;81.93;32.70;;;;;;;3.98;100.00;103113.38;5236958;28;20136;-74
2022/01/15 02:06:40;;;;;;;107.93;34.17;;;;;;;3.94;100.00;103109.13;5235437;28;20044;-74
2022/01/15 02:09:12;;;;;;;93.15;33.63;;;;;;;3.91;100.00;103099.72;5237132;28;20033;-75
2022/01/15 02:11:44;;;;;;;88.50;32.90;;;;;;;3.93;100.00;103103.09;5234918;28;20491;-75
2022/01/15 02:14:26;;;;;;;87.40;33.50;;;;;;;4.10;100.00;103105.34;5236580;28;20060;-75
2022/01/15 02:16:58;;;;;;;81.85;33.40;;;;;;;3.97;100.00;103107.34;5235476;28;20505;-75
2022/01/15 02:19:31;;;;;;;94.93;33.97;;;;;;;3.92;100.00;103095.38;5236956;28;20043;-75
2022/01/15 02:24:53;;;;;;;85.28;32.33;;;;;;;3.97;100.00;103104.75;5236714;28;20033;-74
2022/01/15 02:27:24;;;;;;;98.95;31.15;;;;;;;4.00;100.00;103096.91;5234724;28;20442;-74
2022/01/15 02:29:55;;;;;;;77.70;31.23;;;;;;;3.96;100.00;103092.66;5235626;28;20414;-75
2022/01/15 02:32:30;;;;;;;79.38;31.40;;;;;;;3.99;100.00;103087.44;5235972;28;20029;-75
2022/01/15 02:35:03;;;;;;;84.25;32.83;;;;;;;3.97;100.00;103091.78;5236128;28;20462;-75
2022/01/15 02:37:35;;;;;;;71.88;30.73;;;;;;;3.94;100.00;103078.91;5236107;28;20114;-75
2022/01/15 02:40:09;;;;;;;69.57;29.35;;;;;;;3.98;100.00;103075.34;5234820;28;20120;-75
2022/01/15 02:42:41;;;;;;;60.45;27.35;;;;;;;3.89;100.00;103066.00;5233425;28;20492;-75
2022/01/15 02:45:20;;;;;;;68.70;28.27;;;;;;;3.88;100.00;103058.28;5235589;28;20067;-75
2022/01/15 02:48:03;;;;;;;70.95;27.20;;;;;;;3.87;100.00;103053.97;5234649;28;20030;-74
2022/01/15 02:50:34;;;;;;;64.40;26.42;;;;;;;3.94;100.00;103055.56;5234841;28;20030;-75
2022/01/15 02:53:07;;;;;;;63.28;27.27;;;;;;;3.87;100.00;103046.19;5235961;28;20111;-75
2022/01/15 02:55:43;;;;;;;67.53;28.55;;;;;;;3.96;100.00;103046.00;5232767;28;20029;-75
2022/01/15 02:58:16;;;;;;;73.68;28.58;;;;;;;3.87;100.00;103039.28;5236157;28;20036;-75
2022/01/15 03:00:49;;;;;;;57.50;25.13;;;;;;;3.81;100.00;103025.56;5233259;28;20036;-76
2022/01/15 03:03:21;;;;;;;63.85;27.20;;;;;;;3.82;100.00;103027.28;5235313;28;20454;-76
2022/01/15 03:05:52;;;;;;;65.05;26.35;;;;;;;3.87;100.00;103036.69;5231468;28;20029;-75
2022/01/15 03:08:23;;;;;;;69.10;27.15;;;;;;;3.79;100.00;103028.22;5236259;28;20137;-75
2022/01/15 03:10:54;;;;;;;57.08;24.45;;;;;;;3.79;100.00;103027.34;5233324;28;20026;-75
2022/01/15 03:13:26;;;;;;;61.47;25.42;;;;;;;3.76;100.00;103028.28;5234359;28;20021;-74
2022/01/15 03:15:57;;;;;;;58.92;26.10;;;;;;;3.79;100.00;103029.94;5233189;28;20087;-74
2022/01/15 03:18:28;;;;;;;49.42;23.73;;;;;;;3.71;100.00;103024.06;5235240;28;20112;-75
2022/01/15 03:21:00;;;;;;;57.63;23.55;;;;;;;3.69;100.00;103023.25;5235217;28;20467;-75
2022/01/15 03:23:31;;;;;;;52.53;22.88;;;;;;;3.70;100.00;103030.97;5235859;28;20029;-75
2022/01/15 03:26:04;;;;;;;48.33;22.92;;;;;;;3.77;100.00;103026.53;5233428;28;20037;-75
2022/01/15 03:28:35;;;;;;;43.38;22.83;;;;;;;3.72;100.00;103020.59;5235260;28;20029;-75
2022/01/15 03:31:07;;;;;;;53.38;25.27;;;;;;;3.78;100.00;103025.63;5234804;28;20117;-75
2022/01/15 03:33:39;;;;;;;57.50;23.42;;;;;;;3.80;100.00;103023.88;5234851;28;20037;-74
2022/01/15 03:36:10;;;;;;;58.60;23.67;;;;;;;3.79;100.00;103023.03;5234378;28;20032;-75
2022/01/15 03:38:42;;;;;;;49.08;24.42;;;;;;;3.81;100.00;103016.06;5235319;28;20029;-75
2022/01/15 03:41:13;;;;;;;58.92;25.60;;;;;;;3.80;100.00;103016.09;5234327;28;20037;-75
2022/01/15 03:43:45;;;;;;;48.40;23.08;;;;;;;3.79;100.00;103011.78;5233754;28;20060;-75
2022/01/15 03:46:16;;;;;;;62.28;24.08;;;;;;;3.75;100.00;103004.94;5233214;28;20541;-75
2022/01/15 03:48:47;;;;;;;56.75;23.15;;;;;;;3.78;100.00;103012.66;5235064;28;20120;-75
2022/01/15 03:51:19;;;;;;;59.92;23.63;;;;;;;3.69;100.00;103005.94;5234137;28;20301;-74
2022/01/15 03:53:50;;;;;;;60.95;24.67;;;;;;;3.66;100.00;102987.88;5234064;28;20068;-75
2022/01/15 03:56:21;;;;;;;59.88;26.25;;;;;;;3.70;100.00;102993.84;5233312;28;20033;-75
2022/01/15 03:58:53;;;;;;;57.38;25.48;;;;;;;3.74;100.00;102987.69;5235103;28;20044;-75
2022/01/15 04:01:24;;;;;;;50.92;24.23;;;;;;;3.70;100.00;102978.28;5215701;28;20029;-76
2022/01/15 04:03:55;;;;;;;48.53;22.85;;;;;;;3.74;100.00;102979.94;5233582;28;20062;-75
2022/01/15 04:06:27;;;;;;;54.20;23.88;;;;;;;3.61;100.00;102994.91;5232194;28;20064;-75
2022/01/15 04:08:59;;;;;;;48.40;22.85;;;;;;;3.63;100.00;102986.19;5234598;28;20364;-75
2022/01/15 04:11:30;;;;;;;52.17;23.00;;;;;;;3.59;100.00;102989.72;5233112;28;20091;-75
2022/01/15 04:14:02;;;;;;;51.05;23.67;;;;;;;3.58;100.00;102992.38;5233945;28;20169;-74
2022/01/15 04:16:34;;;;;;;53.10;22.93;;;;;;;3.55;100.00;102977.72;5232611;28;20029;-75
2022/01/15 04:19:08;;;;;;;52.03;24.27;;;;;;;3.53;100.00;102982.09;5216357;28;20298;-76
2022/01/15 04:21:39;;;;;;;57.88;22.77;;;;;;;3.56;100.00;102981.16;5233711;28;20623;-76
2022/01/15 04:24:11;;;;;;;52.15;25.13;;;;;;;3.57;100.00;102970.78;5233706;28;20052;-74
2022/01/15 04:26:42;;;;;;;73.85;24.75;;;;;;;3.57;100.00;102977.72;5232490;28;20048;-74
2022/01/15 04:29:15;;;;;;;68.07;25.67;;;;;;;3.60;100.00;102969.88;5234536;28;20018;-74
2022/01/15 04:31:47;;;;;;;46.95;23.00;;;;;;;3.58;100.00;102953.50;5233463;28;20025;-74
2022/01/15 04:34:26;;;;;;;61.50;24.60;;;;;;;3.63;100.00;102962.00;5234389;28;20378;-75
2022/01/15 04:37:06;;;;;;;65.18;25.33;;;;;;;3.54;100.00;102972.59;5232586;28;20306;-74
2022/01/15 04:39:39;;;;;;;63.35;25.85;;;;;;;3.51;100.00;102964.88;5233267;28;20124;-74
2022/01/15 04:42:11;;;;;;;52.95;26.27;;;;;;;3.61;100.00;102964.66;5231437;28;20036;-75
2022/01/15 04:44:42;;;;;;;51.85;24.02;;;;;;;3.56;100.00;102948.34;5233696;28;20033;-75
2022/01/15 04:47:14;;;;;;;70.65;26.90;;;;;;;3.43;100.00;102954.66;5232257;28;20394;-75
2022/01/15 04:49:45;;;;;;;66.78;26.50;;;;;;;3.51;100.00;102954.50;5234354;28;20033;-74
2022/01/15 04:52:16;;;;;;;57.28;26.50;;;;;;;3.50;100.00;102948.47;5233811;28;20041;-75
2022/01/15 04:54:47;;;;;;;56.08;25.45;;;;;;;3.54;100.00;102950.09;5233722;28;20036;-76
2022/01/15 04:57:19;;;;;;;54.97;25.08;;;;;;;3.56;100.00;102943.16;5232547;28;20025;-75
2022/01/15 04:59:50;;;;;;;49.47;24.73;;;;;;;3.59;100.00;102940.47;5229557;28;20034;-76
2022/01/15 05:02:22;;;;;;;52.97;25.52;;;;;;;3.63;100.00;102939.53;5231559;28;20445;-76
2022/01/15 05:04:53;;;;;;;54.13;24.48;;;;;;;3.58;100.00;102927.56;5230651;28;20026;-76
2022/01/15 05:07:24;;;;;;;47.42;23.05;;;;;;;3.69;100.00;102935.13;5231353;28;20040;-75
2022/01/15 05:09:56;;;;;;;52.60;23.77;;;;;;;3.62;100.00;102926.63;5232960;28;20198;-75
2022/01/15 05:12:41;;;;;;;49.70;24.55;;;;;;;3.60;100.00;102918.03;5232961;28;20712;-74
2022/01/15 05:15:14;;;;;;;51.28;24.25;;;;;;;3.53;100.00;102922.50;5231183;28;20842;-75
2022/01/15 05:17:47;;;;;;;48.75;23.58;;;;;;;3.61;100.00;102930.94;5233292;28;20033;-75
2022/01/15 05:20:20;;;;;;;58.55;24.20;;;;;;;3.62;100.00;102922.28;5231980;28;20026;-75
2022/01/15 05:22:52;;;;;;;56.13;24.98;;;;;;;3.63;100.00;102928.31;5232769;28;20026;-75
2022/01/15 05:25:23;;;;;;;56.42;25.67;;;;;;;3.59;100.00;102926.69;5233082;28;20035;-74
2022/01/15 05:27:54;;;;;;;50.60;25.60;;;;;;;3.59;100.00;102911.13;5233403;28;20030;-75
2022/01/15 05:30:26;;;;;;;62.03;27.98;;;;;;;3.60;100.00;102908.53;5233100;28;20577;-75
2022/01/15 05:32:58;;;;;;;76.72;28.40;;;;;;;3.54;100.00;102898.28;5237196;28;20048;-75
2022/01/15 05:35:30;;;;;;;61.63;27.85;;;;;;;3.63;100.00;102905.84;5237171;28;20033;-75
2022/01/15 05:38:01;;;;;;;54.33;28.67;;;;;;;3.60;100.00;102897.31;5237384;28;20041;-75
2022/01/15 05:40:32;;;;;;;58.17;28.10;;;;;;;3.61;100.00;102884.28;5236226;28;20040;-74
2022/01/15 05:43:04;;;;;;;60.67;27.13;;;;;;;3.53;100.00;102877.59;5236686;28;20086;-75
2022/01/15 05:45:35;;;;;;;57.92;27.70;;;;;;;3.65;100.00;102891.13;5236655;28;20105;-75
2022/01/15 05:48:06;;;;;;;78.20;29.42;;;;;;;3.62;100.00;102888.59;5235820;28;20029;-75
2022/01/15 05:50:37;;;;;;;59.33;28.55;;;;;;;3.61;100.00;102886.03;5236023;28;20025;-75
2022/01/15 05:53:09;;;;;;;52.70;27.58;;;;;;;3.63;100.00;102884.25;5236845;28;20048;-75
2022/01/15 05:55:40;;;;;;;103.00;29.88;;;;;;;3.60;100.00;102887.78;5235576;28;20060;-75
2022/01/15 05:58:11;;;;;;;56.53;28.05;;;;;;;3.62;100.00;102875.63;5236463;28;20284;-75
2022/01/15 06:00:43;;;;;;;62.50;27.00;;;;;;;3.53;100.00;102870.66;5236220;28;20040;-75
2022/01/15 06:03:14;;;;;;;64.82;26.55;;;;;;;3.56;100.00;102878.38;5235280;28;20555;-75
2022/01/15 06:05:45;;;;;;;68.05;27.67;;;;;;;3.55;100.00;102866.28;5236418;28;20064;-74
2022/01/15 06:08:17;;;;;;;60.25;26.38;;;;;;;3.56;100.00;102861.94;5236926;28;20072;-75
2022/01/15 06:10:48;;;;;;;52.80;25.73;;;;;;;3.56;100.00;102849.88;5235101;28;20033;-76
2022/01/15 06:13:19;;;;;;;57.15;26.63;;;;;;;3.59;100.00;102865.31;5235495;28;20035;-75
2022/01/15 06:15:50;;;;;;;70.88;26.50;;;;;;;3.50;100.00;102851.75;5235744;28;20074;-75
2022/01/15 06:18:22;;;;;;;70.18;27.23;;;;;;;3.51;100.00;102863.81;5236494;28;20075;-75
2022/01/15 06:20:53;;;;;;;74.25;25.27;;;;;;;3.48;100.00;102866.47;5234318;28;20022;-74
2022/01/15 06:23:24;;;;;;;82.13;26.00;;;;;;;3.48;100.00;102856.09;5236384;28;20134;-74
2022/01/15 06:25:55;;;;;;;80.15;23.75;;;;;;;3.43;100.00;102843.25;5236011;28;20041;-74
2022/01/15 06:28:27;;;;;;;57.60;25.30;;;;;;;3.47;100.00;102851.81;5234746;28;20090;-75
2022/01/15 06:30:58;;;;;;;49.75;26.10;;;;;;;3.54;100.00;102858.56;5217512;28;20036;-74
2022/01/15 06:33:30;;;;;;;64.82;26.38;;;;;;;3.52;100.00;102847.34;5218260;28;20499;-75
2022/01/15 06:36:01;;;;;;;69.68;26.38;;;;;;;3.51;100.00;102856.03;5236359;28;20029;-74
2022/01/15 06:38:32;;;;;;;65.85;26.88;;;;;;;3.43;100.00;102845.84;5236048;28;20196;-75
2022/01/15 06:41:04;;;;;;;55.75;27.70;;;;;;;3.52;100.00;102853.38;5233975;28;20350;-75
2022/01/15 06:43:35;;;;;;;54.28;26.60;;;;;;;3.58;100.00;102855.84;5217998;28;20037;-75
2022/01/15 06:46:06;;;;;;;68.55;27.15;;;;;;;3.56;100.00;102855.06;5234771;28;20032;-75
2022/01/15 06:48:38;;;;;;;77.97;26.77;;;;;;;3.54;100.00;102850.78;5236082;28;20031;-75
2022/01/15 06:51:09;;;;;;;83.43;28.80;;;;;;;3.52;100.00;102848.22;5233010;28;20041;-76
2022/01/15 06:53:40;;;;;;;110.13;26.73;;;;;;;3.40;100.00;102848.50;5235925;28;20167;-74
2022/01/15 06:56:12;;;;;;;96.90;27.20;;;;;;;3.36;100.00;102841.69;5234959;28;20506;-75
2022/01/15 06:58:43;;;;;;;91.15;26.88;;;;;;;3.47;100.00;102855.25;5235729;28;20616;-74
2022/01/15 07:01:14;;;;;;;86.10;26.75;;;;;;;3.44;100.00;102850.13;5234718;28;20112;-75
2022/01/15 07:03:45;;;;;;;89.10;27.30;;;;;;;3.37;100.00;102848.56;5228345;28;20064;-74
2022/01/15 07:06:17;;;;;;;124.28;27.08;;;;;;;3.45;100.00;102856.16;5232774;28;20080;-75
2022/01/15 07:08:48;;;;;;;101.40;26.27;;;;;;;3.46;100.00;102855.28;5235777;28;20037;-75
2022/01/15 07:11:22;;;;;;;136.25;27.80;;;;;;;3.35;100.00;102840.84;5234420;28;20021;-74
2022/01/15 07:13:53;;;;;;;106.43;25.90;;;;;;;3.37;100.00;102848.56;5235019;28;20033;-74
2022/01/15 07:16:24;;;;;;;173.60;28.25;;;;;;;3.36;100.00;102859.81;5233917;28;20502;-75
2022/01/15 07:18:56;;;;;;;128.80;28.10;;;;;;;3.40;100.00;102848.50;5218304;28;20041;-74
2022/01/15 07:21:27;;;;;;;107.65;25.55;;;;;;;3.40;100.00;102849.34;5233702;28;20069;-75
2022/01/15 07:23:58;;;;;;;114.20;25.67;;;;;;;3.42;100.00;102851.91;5235770;28;20466;-75
2022/01/15 07:26:29;;;;;;;110.55;23.77;;;;;;;3.31;100.00;102838.34;5234465;28;20453;-74
2022/01/15 07:29:01;;;;;;;95.97;23.05;;;;;;;3.35;100.00;102848.59;5235543;28;20045;-75
2022/01/15 07:31:32;;;;;;;87.53;22.55;;;;;;;3.35;100.00;102840.84;5234272;28;20853;-75
2022/01/15 07:34:03;;;;;;;112.40;21.67;;;;;;;3.36;100.00;102849.44;5234189;28;20029;-75
2022/01/15 07:36:35;;;;;;;116.30;20.13;;;;;;;3.17;100.00;102839.50;5235367;28;20033;-75
2022/01/15 07:39:07;;;;;;;104.03;21.88;;;;;;;3.11;100.00;102841.38;5234386;28;20383;-74
2022/01/15 07:41:38;;;;;;;117.43;19.52;;;;;;;3.10;100.00;102843.09;5232824;28;20059;-75
2022/01/15 07:44:10;;;;;;;106.30;20.65;;;;;;;3.09;100.00;102841.41;5235456;28;20029;-75
2022/01/15 07:46:42;;;;;;;74.00;20.30;;;;;;;3.11;100.00;102850.00;5234153;28;20095;-74
2022/01/15 07:49:13;;;;;;;84.15;19.30;;;;;;;3.12;100.00;102851.69;5233516;28;20099;-74
2022/01/15 07:51:44;;;;;;;52.60;18.35;;;;;;;3.15;100.00;102856.81;5231208;28;20080;-75
2022/01/15 07:54:16;;;;;;;56.92;18.17;;;;;;;3.16;100.00;102858.50;5235252;28;20075;-75
2022/01/15 07:56:47;;;;;;;83.90;18.85;;;;;;;3.14;100.00;102855.13;5233189;28;20079;-75
2022/01/15 07:59:18;;;;;;;61.83;19.13;;;;;;;3.17;100.00;102857.63;5235160;28;20087;-74
2022/01/15 08:01:50;;;;;;;65.35;18.23;;;;;;;3.15;100.00;102861.16;5232955;28;20040;-75
2022/01/15 08:04:21;;;;;;;92.38;18.60;;;;;;;3.03;100.00;102845.84;5234693;28;20025;-75
2022/01/15 08:06:52;;;;;;;67.40;19.35;;;;;;;2.96;100.00;102842.56;5233351;28;20045;-75
2022/01/15 08:09:24;;;;;;;94.38;17.23;;;;;;;3.11;100.00;102857.78;5233209;28;20021;-74
2022/01/15 08:11:55;;;;;;;63.25;17.85;;;;;;;3.04;100.00;102861.38;5232740;28;20040;-75
2022/01/15 08:14:26;;;;;;;74.13;17.58;;;;;;;3.00;100.00;102854.56;5232093;28;20025;-75
2022/01/15 08:16:59;;;;;;;97.93;19.30;;;;;;;2.98;100.00;102848.53;5233174;28;20040;-75
2022/01/15 08:19:30;;;;;;;67.85;17.90;;;;;;;3.03;100.00;102838.97;5235063;28;20029;-75
2022/01/15 08:22:02;;;;;;;71.63;17.88;;;;;;;2.98;100.00;102837.34;5230052;28;20055;-75
2022/01/15 08:24:33;;;;;;;69.75;17.63;;;;;;;3.02;100.00;102839.81;5232499;28;20044;-75
2022/01/15 08:27:04;;;;;;;62.53;18.35;;;;;;;3.07;100.00;102840.59;5232419;28;20033;-75
2022/01/15 08:29:36;;;;;;;45.30;17.98;;;;;;;3.09;100.00;102844.00;5234524;28;20437;-75
2022/01/15 08:32:07;;;;;;;86.68;19.73;;;;;;;2.97;100.00;102836.50;5232137;28;20029;-75
2022/01/15 08:34:39;;;;;;;100.80;20.48;;;;;;;2.99;100.00;102842.47;5232733;28;20033;-76
2022/01/15 08:37:11;;;;;;;76.72;22.23;;;;;;;2.96;100.00;102834.78;5232455;28;20032;-75
2022/01/15 08:39:42;;;;;;;69.13;23.77;;;;;;;2.99;100.00;102837.28;5234247;28;20032;-75
2022/01/15 08:42:13;;;;;;;57.97;21.80;;;;;;;3.01;100.00;102840.72;5232190;28;20454;-75
2022/01/15 08:44:45;;;;;;;66.72;23.02;;;;;;;2.95;100.00;102830.47;5233281;28;20083;-75
2022/01/15 08:47:17;;;;;;;75.57;23.08;;;;;;;2.97;100.00;102841.66;5232369;28;20060;-75
2022/01/15 08:49:48;;;;;;;69.22;22.83;;;;;;;2.85;100.00;102839.34;5232963;28;20029;-74
2022/01/15 08:52:19;;;;;;;59.53;21.23;;;;;;;2.82;100.00;102839.41;5232634;28;20132;-74
2022/01/15 08:54:51;;;;;;;65.22;22.08;;;;;;;2.83;100.00;102846.28;5230446;28;20033;-75
2022/01/15 08:57:22;;;;;;;86.47;22.75;;;;;;;2.79;100.00;102829.09;5232382;28;20442;-75
2022/01/15 08:59:53;;;;;;;59.38;21.70;;;;;;;2.72;100.00;102843.88;5231013;28;20033;-75
2022/01/15 09:02:25;;;;;;;59.13;22.02;;;;;;;2.75;100.00;102840.41;5232394;28;20069;-75
2022/01/15 09:04:56;;;;;;;53.05;21.83;;;;;;;2.75;100.00;102840.41;5231540;28;20033;-75
2022/01/15 09:07:28;;;;;;;85.05;24.15;;;;;;;2.72;100.00;102837.88;5233735;28;20068;-75
2022/01/15 09:09:59;;;;;;;58.17;22.70;;;;;;;2.74;100.00;102842.13;5233023;28;20018;-75
2022/01/15 09:12:32;;;;;;;64.00;22.25;;;;;;;2.80;100.00;102834.22;5232487;28;20033;-75
2022/01/15 09:15:04;;;;;;;63.75;23.58;;;;;;;2.76;100.00;102822.25;5231797;28;20037;-75
2022/01/15 09:17:35;;;;;;;68.30;24.02;;;;;;;2.64;100.00;102809.56;5216294;28;20037;-75
2022/01/15 09:20:07;;;;;;;75.45;23.65;;;;;;;2.72;100.00;102817.16;5232326;28;20136;-75
2022/01/15 09:22:38;;;;;;;53.58;23.95;;;;;;;2.80;100.00;102817.84;5229766;28;20022;-75
2022/01/15 09:25:10;;;;;;;70.57;25.17;;;;;;;2.82;100.00;102824.72;5229568;28;20430;-75
2022/01/15 09:30:31;;;;;;;62.35;27.45;;;;;;;2.82;100.00;102814.34;5232759;28;20108;-75
2022/01/15 09:33:03;;;;;;;81.07;25.08;;;;;;;2.80;100.00;102813.53;5231832;28;20428;-75
2022/01/15 09:35:35;;;;;;;78.50;25.80;;;;;;;2.75;100.00;102799.00;5232579;28;20297;-75
2022/01/15 09:38:07;;;;;;;49.85;23.55;;;;;;;2.80;100.00;102804.91;5223286;28;20422;-75
2022/01/15 09:40:40;;;;;;;48.92;25.13;;;;;;;2.85;100.00;102803.09;5230516;28;20068;-75
2022/01/15 09:43:13;;;;;;;64.07;26.08;;;;;;;2.86;100.00;102799.63;5233330;28;20029;-75
2022/01/15 09:45:44;;;;;;;60.42;25.67;;;;;;;2.83;100.00;102797.94;5232736;28;20037;-75
2022/01/15 09:48:16;;;;;;;62.20;26.38;;;;;;;2.88;100.00;102809.06;5231640;28;20611;-75
2022/01/15 09:50:47;;;;;;;47.80;25.27;;;;;;;2.93;100.00;102802.03;5231717;28;20073;-75
2022/01/15 09:53:20;;;;;;;55.60;25.05;;;;;;;2.91;100.00;102806.38;5233304;28;20021;-75
2022/01/15 09:55:52;;;;;;;64.53;27.20;;;;;;;2.90;100.00;102811.59;5231277;28;20041;-75
2022/01/15 09:58:23;;;;;;;62.30;26.83;;;;;;;2.82;100.00;102805.75;5231542;28;20063;-75
2022/01/15 10:00:55;;;;;;;51.15;25.80;;;;;;;2.88;100.00;102795.28;5233279;28;20104;-75
2022/01/15 10:03:26;;;;;;;49.85;27.17;;;;;;;3.00;100.00;102805.34;5233104;28;20048;-75
2022/01/15 10:06:03;;;;;;;47.70;26.65;;;;;;;3.04;100.00;102812.19;5231549;28;20069;-75
2022/01/15 10:08:34;;;;;;;54.33;27.13;;;;;;;3.00;100.00;102810.53;5231563;28;20082;-75
2022/01/15 10:11:11;;;;;;;62.10;27.13;;;;;;;3.04;100.00;102814.75;5232794;28;20467;-75
2022/01/15 10:13:44;;;;;;;61.67;28.27;;;;;;;3.02;100.00;102813.09;5233251;28;20037;-75
2022/01/15 10:16:21;;;;;;;65.95;29.90;;;;;;;3.00;100.00;102812.28;5232936;28;20033;-75
2022/01/15 10:18:52;;;;;;;64.13;28.42;;;;;;;2.94;100.00;102813.25;5236743;28;20099;-75
2022/01/15 10:21:25;;;;;;;60.10;31.13;;;;;;;3.03;100.00;102813.06;5236242;28;20057;-75
2022/01/15 10:23:58;;;;;;;60.10;31.80;;;;;;;3.07;100.00;102813.81;5235899;28;20056;-75
2022/01/15 10:26:34;;;;;;;67.00;30.90;;;;;;;3.07;100.00;102806.94;5235084;28;20030;-75
2022/01/15 10:29:07;;;;;;;61.47;29.35;;;;;;;3.01;100.00;102803.63;5235967;28;20029;-75
2022/01/15 10:31:41;;;;;;;61.50;29.42;;;;;;;3.16;100.00;102800.69;5235988;28;20434;-75
2022/01/15 10:34:31;;;;;;;69.65;32.08;;;;;;;3.28;100.00;102800.41;5235705;28;20163;-75
2022/01/15 10:37:07;;;;;;;79.00;33.00;;;;;;;3.27;100.00;102795.28;5235199;28;20108;-75
2022/01/15 10:39:40;;;;;;;73.90;30.85;;;;;;;3.23;100.00;102797.09;5236248;28;20041;-75
2022/01/15 10:42:14;;;;;;;75.82;31.60;;;;;;;3.22;100.00;102787.63;5235488;28;20033;-75
2022/01/15 10:44:47;;;;;;;76.10;31.98;;;;;;;3.27;100.00;102790.09;5236072;28;20383;-75
2022/01/15 10:47:21;;;;;;;73.38;31.40;;;;;;;3.29;100.00;102793.47;5235490;28;20031;-75
2022/01/15 10:49:56;;;;;;;74.72;32.40;;;;;;;3.30;100.00;102796.06;5235684;28;20471;-75
2022/01/15 10:52:28;;;;;;;89.32;33.72;;;;;;;3.23;100.00;102789.31;5235050;28;20057;-75
2022/01/15 10:55:09;;;;;;;85.15;34.72;;;;;;;3.25;100.00;102787.50;5235100;28;20034;-75
2022/01/15 10:57:53;;;;;;;66.97;32.38;;;;;;;3.39;100.00;102782.88;5236108;28;20065;-75
2022/01/15 11:00:38;;;;;;;74.93;32.60;;;;;;;3.44;100.00;102785.34;5235005;28;20475;-75
2022/01/15 11:03:16;;;;;;;66.75;32.42;;;;;;;3.46;100.00;102775.81;5235993;28;20120;-75
2022/01/15 11:05:49;;;;;;;81.43;30.83;;;;;;;3.41;100.00;102781.13;5216854;28;20156;-75
2022/01/15 11:08:23;;;;;;;73.15;30.27;;;;;;;3.46;100.00;102772.38;5235534;28;20033;-75
2022/01/15 11:11:00;;;;;;;69.80;30.42;;;;;;;3.49;100.00;102772.31;5232602;28;20375;-75
2022/01/15 11:13:35;;;;;;;62.25;31.48;;;;;;;3.53;100.00;102767.00;5236396;28;20342;-75
2022/01/15 11:16:10;;;;;;;57.75;30.63;;;;;;;3.63;100.00;102765.03;5234237;28;20021;-75
2022/01/15 11:18:44;;;;;;;72.13;31.35;;;;;;;3.61;100.00;102757.28;5233483;28;20021;-75
2022/01/15 11:21:18;;;;;;;;;;;;;;;4.04;100.00;102757.94;5235419;28;20030;-75
2022/01/15 11:23:50;;;;;;;78.13;30.67;;;;;;;3.61;100.00;102749.53;5235804;28;19917;-75
2022/01/15 11:26:24;;;;;;;62.43;30.90;;;;;;;3.69;100.00;102762.28;5234741;28;20029;-75
2022/01/15 11:28:58;;;;;;;53.20;29.90;;;;;;;3.62;100.00;102768.50;5231637;28;20287;-75
2022/01/15 11:31:31;;;;;;;;;;;;;;;4.10;100.00;102768.16;5235497;28;20029;-75
2022/01/15 11:34:05;;;;;;;50.25;25.98;;;;;;;3.60;100.00;102758.19;5233842;28;19917;-75
2022/01/15 11:36:37;;;;;;;46.67;25.52;;;;;;;3.49;100.00;102749.84;5234396;28;20049;-75
2022/01/15 11:39:14;;;;;;;51.22;26.73;;;;;;;3.56;100.00;102751.38;5234646;28;20418;-75
2022/01/15 11:41:55;;;;;;;49.40;25.67;;;;;;;3.46;100.00;102743.88;5231783;28;20151;-75
2022/01/15 11:44:28;;;;;;;50.95;26.98;;;;;;;3.56;100.00;102737.56;5231519;28;20047;-75
2022/01/15 11:47:12;;;;;;;55.22;28.60;;;;;;;3.68;100.00;102734.66;5232533;28;20056;-75
2022/01/15 11:49:49;;;;;;;50.30;27.70;;;;;;;3.63;100.00;102726.16;5231728;28;20033;-75
2022/01/15 11:52:22;;;;;;;44.42;25.92;;;;;;;3.64;100.00;102722.69;5232679;28;20496;-75